sensor_id;sensor_type;location;lat;lon;timestamp;P1;durP1;ratioP1;P2;durP2;ratioP2
19535;SDS011;9913;51.168;4.124;2022-09-01T00:02:30;1.27;;;0.93;;
19535;SDS011;9913;51.168;4.124;2022-09-01T00:05:00;1.25;;;1.00;;
19535;SDS011;9913;51.168;4.124;2022-09-01T00:07:30;2.20;;;1.00;;
19535;SDS011;9913;51.168;4.124;2022-09-01T00:10:03;1.27;;;1.10;;
19535;SDS011;9913;51.168;4.124;2022-09-01T00:12:34;2.90;;;1.20;;
19535;SDS011;9913;51.168;4.124;2022-09-01T00:15:03;2.15;;;1.50;;
19535;SDS011;9913;51.168;4.124;2022-09-01T00:17:34;3.17;;;1.60;;
19535;SDS011;9913;51.168;4.124;2022-09-01T00:20:02;3.08;;;1.50;;
19535;SDS011;9913;51.168;4.124;2022-09-01T00:22:31;2.22;;;1.20;;
19535;SDS011;9913;51.168;4.124;2022-09-01T00:25:01;3.88;;;1.20;;
19535;SDS011;9913;51.168;4.124;2022-09-01T00:27:31;3.95;;;1.58;;
19535;SDS011;9913;51.168;4.124;2022-09-01T00:30:00;1.98;;;1.27;;
19535;SDS011;9913;51.168;4.124;2022-09-01T00:32:28;3.00;;;1.38;;
19535;SDS011;9913;51.168;4.124;2022-09-01T00:34:56;3.42;;;1.98;;
19535;SDS011;9913;51.168;4.124;2022-09-01T00:37:25;2.92;;;1.30;;
19535;SDS011;9913;51.168;4.124;2022-09-01T00:39:53;2.25;;;1.40;;
19535;SDS011;9913;51.168;4.124;2022-09-01T00:42:23;2.00;;;1.40;;
19535;SDS011;9913;51.168;4.124;2022-09-01T00:44:51;2.47;;;1.70;;
19535;SDS011;9913;51.168;4.124;2022-09-01T00:47:20;4.30;;;1.50;;
19535;SDS011;9913;51.168;4.124;2022-09-01T00:49:48;5.60;;;1.73;;
19535;SDS011;9913;51.168;4.124;2022-09-01T00:52:19;3.45;;;1.50;;
19535;SDS011;9913;51.168;4.124;2022-09-01T00:54:50;3.85;;;1.40;;
19535;SDS011;9913;51.168;4.124;2022-09-01T00:57:22;2.03;;;1.30;;
19535;SDS011;9913;51.168;4.124;2022-09-01T00:59:53;3.50;;;1.42;;
19535;SDS011;9913;51.168;4.124;2022-09-01T01:02:25;2.83;;;1.33;;
19535;SDS011;9913;51.168;4.124;2022-09-01T01:04:54;2.55;;;1.33;;
19535;SDS011;9913;51.168;4.124;2022-09-01T01:07:26;2.47;;;1.17;;
19535;SDS011;9913;51.168;4.124;2022-09-01T01:09:55;2.03;;;1.35;;
19535;SDS011;9913;51.168;4.124;2022-09-01T01:12:25;1.92;;;1.30;;
19535;SDS011;9913;51.168;4.124;2022-09-01T01:14:56;2.67;;;1.38;;
19535;SDS011;9913;51.168;4.124;2022-09-01T01:17:24;2.10;;;1.38;;
19535;SDS011;9913;51.168;4.124;2022-09-01T01:19:53;2.08;;;1.30;;
19535;SDS011;9913;51.168;4.124;2022-09-01T01:22:43;1.85;;;1.15;;
19535;SDS011;9913;51.168;4.124;2022-09-01T01:25:37;3.45;;;1.65;;
19535;SDS011;9913;51.168;4.124;2022-09-01T01:28:10;1.73;;;1.40;;
19535;SDS011;9913;51.168;4.124;2022-09-01T01:30:43;2.47;;;1.35;;
19535;SDS011;9913;51.168;4.124;2022-09-01T01:33:17;2.05;;;1.40;;
19535;SDS011;9913;51.168;4.124;2022-09-01T01:35:47;2.22;;;1.40;;
19535;SDS011;9913;51.168;4.124;2022-09-01T01:38:16;3.42;;;1.40;;
19535;SDS011;9913;51.168;4.124;2022-09-01T01:40:50;2.22;;;1.40;;
19535;SDS011;9913;51.168;4.124;2022-09-01T01:43:23;1.60;;;1.30;;
19535;SDS011;9913;51.168;4.124;2022-09-01T01:45:54;1.77;;;1.50;;
19535;SDS011;9913;51.168;4.124;2022-09-01T01:48:29;2.90;;;1.33;;
19535;SDS011;9913;51.168;4.124;2022-09-01T01:51:00;2.40;;;1.33;;
19535;SDS011;9913;51.168;4.124;2022-09-01T01:53:31;2.08;;;1.40;;
19535;SDS011;9913;51.168;4.124;2022-09-01T01:56:01;2.50;;;1.75;;
19535;SDS011;9913;51.168;4.124;2022-09-01T01:58:34;4.28;;;1.40;;
19535;SDS011;9913;51.168;4.124;2022-09-01T02:01:08;3.03;;;1.40;;
19535;SDS011;9913;51.168;4.124;2022-09-01T02:03:37;2.75;;;1.40;;
19535;SDS011;9913;51.168;4.124;2022-09-01T02:06:07;3.80;;;1.50;;
19535;SDS011;9913;51.168;4.124;2022-09-01T02:08:38;3.10;;;1.50;;
19535;SDS011;9913;51.168;4.124;2022-09-01T02:11:09;3.63;;;1.63;;
19535;SDS011;9913;51.168;4.124;2022-09-01T02:13:38;2.47;;;1.38;;
19535;SDS011;9913;51.168;4.124;2022-09-01T02:16:07;3.40;;;1.60;;
19535;SDS011;9913;51.168;4.124;2022-09-01T02:18:39;2.38;;;1.48;;
19535;SDS011;9913;51.168;4.124;2022-09-01T02:21:10;3.65;;;1.60;;
19535;SDS011;9913;51.168;4.124;2022-09-01T02:23:44;3.55;;;1.30;;
19535;SDS011;9913;51.168;4.124;2022-09-01T02:26:15;2.47;;;1.40;;
19535;SDS011;9913;51.168;4.124;2022-09-01T02:28:47;2.58;;;1.40;;
19535;SDS011;9913;51.168;4.124;2022-09-01T02:31:25;1.98;;;1.25;;
19535;SDS011;9913;51.168;4.124;2022-09-01T02:33:58;3.45;;;1.60;;
19535;SDS011;9913;51.168;4.124;2022-09-01T02:36:27;2.65;;;1.77;;
19535;SDS011;9913;51.168;4.124;2022-09-01T02:38:59;2.25;;;1.73;;
19535;SDS011;9913;51.168;4.124;2022-09-01T02:41:29;2.38;;;1.50;;
19535;SDS011;9913;51.168;4.124;2022-09-01T02:44:01;4.15;;;1.88;;
19535;SDS011;9913;51.168;4.124;2022-09-01T02:46:31;4.15;;;1.50;;
19535;SDS011;9913;51.168;4.124;2022-09-01T02:49:00;2.50;;;1.58;;
19535;SDS011;9913;51.168;4.124;2022-09-01T02:51:30;3.47;;;1.70;;
19535;SDS011;9913;51.168;4.124;2022-09-01T02:54:00;4.22;;;1.70;;
19535;SDS011;9913;51.168;4.124;2022-09-01T02:56:30;2.90;;;1.45;;
19535;SDS011;9913;51.168;4.124;2022-09-01T02:58:58;2.13;;;1.45;;
19535;SDS011;9913;51.168;4.124;2022-09-01T03:01:29;3.83;;;1.60;;
19535;SDS011;9913;51.168;4.124;2022-09-01T03:04:00;3.17;;;1.60;;
19535;SDS011;9913;51.168;4.124;2022-09-01T03:06:31;4.15;;;1.67;;
19535;SDS011;9913;51.168;4.124;2022-09-01T03:09:03;3.08;;;1.83;;
19535;SDS011;9913;51.168;4.124;2022-09-01T03:11:39;2.55;;;1.60;;
19535;SDS011;9913;51.168;4.124;2022-09-01T03:14:10;2.28;;;1.58;;
19535;SDS011;9913;51.168;4.124;2022-09-01T03:16:39;3.17;;;1.55;;
19535;SDS011;9913;51.168;4.124;2022-09-01T03:19:08;5.10;;;1.95;;
19535;SDS011;9913;51.168;4.124;2022-09-01T03:21:40;3.97;;;1.70;;
19535;SDS011;9913;51.168;4.124;2022-09-01T03:24:13;6.03;;;2.25;;
19535;SDS011;9913;51.168;4.124;2022-09-01T03:26:45;3.03;;;1.80;;
19535;SDS011;9913;51.168;4.124;2022-09-01T03:29:17;3.25;;;1.83;;
19535;SDS011;9913;51.168;4.124;2022-09-01T03:31:46;3.58;;;2.00;;
19535;SDS011;9913;51.168;4.124;2022-09-01T03:34:15;3.58;;;2.58;;
19535;SDS011;9913;51.168;4.124;2022-09-01T03:36:48;2.72;;;1.52;;
19535;SDS011;9913;51.168;4.124;2022-09-01T03:39:24;3.83;;;1.83;;
19535;SDS011;9913;51.168;4.124;2022-09-01T03:41:54;3.83;;;2.17;;
19535;SDS011;9913;51.168;4.124;2022-09-01T03:44:25;2.50;;;1.70;;
19535;SDS011;9913;51.168;4.124;2022-09-01T03:46:54;3.85;;;2.03;;
19535;SDS011;9913;51.168;4.124;2022-09-01T03:49:24;2.78;;;1.95;;
19535;SDS011;9913;51.168;4.124;2022-09-01T03:51:55;3.25;;;2.20;;
19535;SDS011;9913;51.168;4.124;2022-09-01T03:54:25;3.55;;;1.92;;
19535;SDS011;9913;51.168;4.124;2022-09-01T03:56:57;3.08;;;1.92;;
19535;SDS011;9913;51.168;4.124;2022-09-01T03:59:27;3.95;;;2.10;;
19535;SDS011;9913;51.168;4.124;2022-09-01T04:01:56;4.30;;;2.08;;
19535;SDS011;9913;51.168;4.124;2022-09-01T04:04:26;3.67;;;1.85;;
19535;SDS011;9913;51.168;4.124;2022-09-01T04:06:57;3.53;;;2.05;;
19535;SDS011;9913;51.168;4.124;2022-09-01T04:09:27;2.65;;;2.10;;
19535;SDS011;9913;51.168;4.124;2022-09-01T04:11:57;3.95;;;2.08;;
19535;SDS011;9913;51.168;4.124;2022-09-01T04:14:26;4.40;;;2.17;;
19535;SDS011;9913;51.168;4.124;2022-09-01T04:16:56;4.18;;;1.92;;
19535;SDS011;9913;51.168;4.124;2022-09-01T04:19:41;3.22;;;2.28;;
19535;SDS011;9913;51.168;4.124;2022-09-01T04:22:10;6.00;;;2.72;;
19535;SDS011;9913;51.168;4.124;2022-09-01T04:24:43;4.95;;;2.50;;
19535;SDS011;9913;51.168;4.124;2022-09-01T04:27:14;4.25;;;2.30;;
19535;SDS011;9913;51.168;4.124;2022-09-01T04:29:47;3.33;;;2.55;;
19535;SDS011;9913;51.168;4.124;2022-09-01T04:32:15;4.28;;;2.30;;
19535;SDS011;9913;51.168;4.124;2022-09-01T04:34:51;4.57;;;2.42;;
19535;SDS011;9913;51.168;4.124;2022-09-01T04:37:20;3.55;;;2.47;;
19535;SDS011;9913;51.168;4.124;2022-09-01T04:39:53;4.18;;;2.55;;
19535;SDS011;9913;51.168;4.124;2022-09-01T04:42:26;5.18;;;2.70;;
19535;SDS011;9913;51.168;4.124;2022-09-01T04:45:01;5.13;;;2.60;;
19535;SDS011;9913;51.168;4.124;2022-09-01T04:47:42;4.70;;;2.90;;
19535;SDS011;9913;51.168;4.124;2022-09-01T04:50:15;5.13;;;2.60;;
19535;SDS011;9913;51.168;4.124;2022-09-01T04:53:02;3.58;;;2.53;;
19535;SDS011;9913;51.168;4.124;2022-09-01T04:55:47;5.93;;;3.15;;
19535;SDS011;9913;51.168;4.124;2022-09-01T04:58:21;5.85;;;3.03;;
19535;SDS011;9913;51.168;4.124;2022-09-01T05:00:51;4.75;;;2.75;;
19535;SDS011;9913;51.168;4.124;2022-09-01T05:03:22;4.05;;;2.80;;
19535;SDS011;9913;51.168;4.124;2022-09-01T05:06:11;4.55;;;3.00;;
19535;SDS011;9913;51.168;4.124;2022-09-01T05:08:45;5.47;;;2.78;;
19535;SDS011;9913;51.168;4.124;2022-09-01T05:11:25;3.95;;;2.88;;
19535;SDS011;9913;51.168;4.124;2022-09-01T05:14:03;6.35;;;2.95;;
19535;SDS011;9913;51.168;4.124;2022-09-01T05:16:33;5.80;;;3.30;;
19535;SDS011;9913;51.168;4.124;2022-09-01T05:19:03;4.28;;;2.80;;
19535;SDS011;9913;51.168;4.124;2022-09-01T05:21:36;4.53;;;3.13;;
19535;SDS011;9913;51.168;4.124;2022-09-01T05:24:06;8.07;;;3.40;;
19535;SDS011;9913;51.168;4.124;2022-09-01T05:26:35;6.07;;;3.03;;
19535;SDS011;9913;51.168;4.124;2022-09-01T05:29:05;6.97;;;3.17;;
19535;SDS011;9913;51.168;4.124;2022-09-01T05:31:40;5.10;;;3.13;;
19535;SDS011;9913;51.168;4.124;2022-09-01T05:34:10;4.47;;;2.75;;
19535;SDS011;9913;51.168;4.124;2022-09-01T05:36:42;6.18;;;3.60;;
19535;SDS011;9913;51.168;4.124;2022-09-01T05:39:12;4.55;;;3.58;;
19535;SDS011;9913;51.168;4.124;2022-09-01T05:41:41;6.68;;;3.00;;
19535;SDS011;9913;51.168;4.124;2022-09-01T05:44:13;4.95;;;3.50;;
19535;SDS011;9913;51.168;4.124;2022-09-01T05:46:43;5.63;;;3.10;;
19535;SDS011;9913;51.168;4.124;2022-09-01T05:49:15;7.03;;;3.20;;
19535;SDS011;9913;51.168;4.124;2022-09-01T05:51:47;7.00;;;3.42;;
19535;SDS011;9913;51.168;4.124;2022-09-01T05:54:20;4.32;;;3.28;;
19535;SDS011;9913;51.168;4.124;2022-09-01T05:56:54;10.88;;;4.00;;
19535;SDS011;9913;51.168;4.124;2022-09-01T05:59:45;6.82;;;3.42;;
19535;SDS011;9913;51.168;4.124;2022-09-01T06:02:22;5.60;;;3.53;;
19535;SDS011;9913;51.168;4.124;2022-09-01T06:04:56;7.10;;;3.90;;
19535;SDS011;9913;51.168;4.124;2022-09-01T06:07:30;6.38;;;3.85;;
19535;SDS011;9913;51.168;4.124;2022-09-01T06:10:00;7.70;;;4.07;;
19535;SDS011;9913;51.168;4.124;2022-09-01T06:12:29;6.75;;;3.60;;
19535;SDS011;9913;51.168;4.124;2022-09-01T06:14:59;6.28;;;4.35;;
19535;SDS011;9913;51.168;4.124;2022-09-01T06:17:27;6.88;;;3.78;;
19535;SDS011;9913;51.168;4.124;2022-09-01T06:20:01;8.20;;;4.22;;
19535;SDS011;9913;51.168;4.124;2022-09-01T06:22:39;5.90;;;4.05;;
19535;SDS011;9913;51.168;4.124;2022-09-01T06:25:08;8.38;;;4.10;;
19535;SDS011;9913;51.168;4.124;2022-09-01T06:27:40;8.57;;;4.07;;
19535;SDS011;9913;51.168;4.124;2022-09-01T06:30:13;8.40;;;4.82;;
19535;SDS011;9913;51.168;4.124;2022-09-01T06:33:06;7.82;;;4.03;;
19535;SDS011;9913;51.168;4.124;2022-09-01T06:35:39;8.15;;;4.68;;
19535;SDS011;9913;51.168;4.124;2022-09-01T06:38:11;7.38;;;4.78;;
19535;SDS011;9913;51.168;4.124;2022-09-01T06:40:46;9.75;;;5.32;;
19535;SDS011;9913;51.168;4.124;2022-09-01T06:43:17;8.27;;;5.32;;
19535;SDS011;9913;51.168;4.124;2022-09-01T06:45:51;8.63;;;5.32;;
19535;SDS011;9913;51.168;4.124;2022-09-01T06:48:22;11.15;;;5.72;;
19535;SDS011;9913;51.168;4.124;2022-09-01T06:50:58;9.13;;;5.07;;
19535;SDS011;9913;51.168;4.124;2022-09-01T06:53:52;8.60;;;4.80;;
19535;SDS011;9913;51.168;4.124;2022-09-01T06:56:29;8.50;;;5.43;;
19535;SDS011;9913;51.168;4.124;2022-09-01T06:59:07;8.10;;;5.40;;
19535;SDS011;9913;51.168;4.124;2022-09-01T07:01:38;10.93;;;5.60;;
19535;SDS011;9913;51.168;4.124;2022-09-01T07:04:07;10.85;;;5.40;;
19535;SDS011;9913;51.168;4.124;2022-09-01T07:06:46;8.63;;;5.78;;
19535;SDS011;9913;51.168;4.124;2022-09-01T07:09:46;11.23;;;5.60;;
19535;SDS011;9913;51.168;4.124;2022-09-01T07:12:37;12.82;;;6.03;;
19535;SDS011;9913;51.168;4.124;2022-09-01T07:15:27;12.68;;;7.35;;
19535;SDS011;9913;51.168;4.124;2022-09-01T07:18:20;13.23;;;5.60;;
19535;SDS011;9913;51.168;4.124;2022-09-01T07:20:54;8.05;;;5.28;;
19535;SDS011;9913;51.168;4.124;2022-09-01T07:23:46;8.18;;;5.30;;
19535;SDS011;9913;51.168;4.124;2022-09-01T07:26:34;8.57;;;5.50;;
19535;SDS011;9913;51.168;4.124;2022-09-01T07:29:23;9.52;;;5.60;;
19535;SDS011;9913;51.168;4.124;2022-09-01T07:31:52;11.05;;;5.63;;
19535;SDS011;9913;51.168;4.124;2022-09-01T07:34:44;8.75;;;5.50;;
19535;SDS011;9913;51.168;4.124;2022-09-01T07:37:13;8.48;;;5.70;;
19535;SDS011;9913;51.168;4.124;2022-09-01T07:40:09;9.18;;;5.60;;
19535;SDS011;9913;51.168;4.124;2022-09-01T07:43:02;9.82;;;5.72;;
19535;SDS011;9913;51.168;4.124;2022-09-01T07:45:54;11.05;;;5.38;;
19535;SDS011;9913;51.168;4.124;2022-09-01T07:48:26;9.10;;;5.57;;
19535;SDS011;9913;51.168;4.124;2022-09-01T07:51:19;9.25;;;5.53;;
19535;SDS011;9913;51.168;4.124;2022-09-01T07:54:05;8.20;;;5.47;;
19535;SDS011;9913;51.168;4.124;2022-09-01T07:56:34;8.43;;;6.00;;
19535;SDS011;9913;51.168;4.124;2022-09-01T07:59:08;8.30;;;5.32;;
19535;SDS011;9913;51.168;4.124;2022-09-01T08:02:07;11.75;;;6.20;;
19535;SDS011;9913;51.168;4.124;2022-09-01T08:04:36;12.93;;;6.47;;
19535;SDS011;9913;51.168;4.124;2022-09-01T08:07:09;9.75;;;6.57;;
19535;SDS011;9913;51.168;4.124;2022-09-01T08:09:42;9.75;;;5.38;;
19535;SDS011;9913;51.168;4.124;2022-09-01T08:12:12;12.75;;;6.05;;
19535;SDS011;9913;51.168;4.124;2022-09-01T08:14:45;8.93;;;5.43;;
19535;SDS011;9913;51.168;4.124;2022-09-01T08:17:39;10.52;;;6.15;;
19535;SDS011;9913;51.168;4.124;2022-09-01T08:20:25;8.88;;;5.63;;
19535;SDS011;9913;51.168;4.124;2022-09-01T08:23:17;8.45;;;5.43;;
19535;SDS011;9913;51.168;4.124;2022-09-01T08:25:46;9.55;;;5.65;;
19535;SDS011;9913;51.168;4.124;2022-09-01T08:28:16;10.93;;;5.30;;
19535;SDS011;9913;51.168;4.124;2022-09-01T08:30:52;7.95;;;6.43;;
19535;SDS011;9913;51.168;4.124;2022-09-01T08:33:23;9.77;;;5.50;;
19535;SDS011;9913;51.168;4.124;2022-09-01T08:35:52;8.63;;;4.72;;
19535;SDS011;9913;51.168;4.124;2022-09-01T08:38:24;8.07;;;5.07;;
19535;SDS011;9913;51.168;4.124;2022-09-01T08:40:55;6.45;;;4.63;;
19535;SDS011;9913;51.168;4.124;2022-09-01T08:43:33;8.35;;;5.45;;
19535;SDS011;9913;51.168;4.124;2022-09-01T08:46:12;8.32;;;4.57;;
19535;SDS011;9913;51.168;4.124;2022-09-01T08:48:46;6.75;;;4.63;;
19535;SDS011;9913;51.168;4.124;2022-09-01T08:51:59;8.73;;;5.03;;
19535;SDS011;9913;51.168;4.124;2022-09-01T08:54:38;9.48;;;5.18;;
19535;SDS011;9913;51.168;4.124;2022-09-01T08:57:13;9.25;;;4.97;;
19535;SDS011;9913;51.168;4.124;2022-09-01T09:00:24;8.35;;;4.80;;
19535;SDS011;9913;51.168;4.124;2022-09-01T09:03:05;5.70;;;4.43;;
19535;SDS011;9913;51.168;4.124;2022-09-01T09:05:48;7.13;;;3.95;;
19535;SDS011;9913;51.168;4.124;2022-09-01T09:08:32;7.60;;;4.32;;
19535;SDS011;9913;51.168;4.124;2022-09-01T09:11:16;6.30;;;4.45;;
19535;SDS011;9913;51.168;4.124;2022-09-01T09:14:02;7.50;;;4.40;;
19535;SDS011;9913;51.168;4.124;2022-09-01T09:16:39;7.40;;;4.60;;
19535;SDS011;9913;51.168;4.124;2022-09-01T09:19:10;9.65;;;5.10;;
19535;SDS011;9913;51.168;4.124;2022-09-01T09:21:45;7.47;;;4.47;;
19535;SDS011;9913;51.168;4.124;2022-09-01T09:24:18;6.85;;;4.70;;
19535;SDS011;9913;51.168;4.124;2022-09-01T09:27:04;6.70;;;4.75;;
19535;SDS011;9913;51.168;4.124;2022-09-01T09:29:35;6.07;;;4.40;;
19535;SDS011;9913;51.168;4.124;2022-09-01T09:32:04;7.40;;;4.70;;
19535;SDS011;9913;51.168;4.124;2022-09-01T09:34:48;11.07;;;4.88;;
19535;SDS011;9913;51.168;4.124;2022-09-01T09:37:25;6.47;;;4.60;;
19535;SDS011;9913;51.168;4.124;2022-09-01T09:40:06;8.18;;;4.38;;
19535;SDS011;9913;51.168;4.124;2022-09-01T09:42:57;5.97;;;4.55;;
19535;SDS011;9913;51.168;4.124;2022-09-01T09:45:29;5.50;;;4.50;;
19535;SDS011;9913;51.168;4.124;2022-09-01T09:48:03;9.27;;;4.53;;
19535;SDS011;9913;51.168;4.124;2022-09-01T09:50:37;7.78;;;4.97;;
19535;SDS011;9913;51.168;4.124;2022-09-01T09:53:15;6.93;;;4.40;;
19535;SDS011;9913;51.168;4.124;2022-09-01T09:55:56;6.57;;;4.38;;
19535;SDS011;9913;51.168;4.124;2022-09-01T09:58:32;8.60;;;3.90;;
19535;SDS011;9913;51.168;4.124;2022-09-01T10:01:07;9.02;;;4.22;;
19535;SDS011;9913;51.168;4.124;2022-09-01T10:03:44;6.30;;;3.90;;
19535;SDS011;9913;51.168;4.124;2022-09-01T10:06:28;7.35;;;4.10;;
19535;SDS011;9913;51.168;4.124;2022-09-01T10:08:58;4.75;;;3.65;;
19535;SDS011;9913;51.168;4.124;2022-09-01T10:11:29;5.88;;;3.80;;
19535;SDS011;9913;51.168;4.124;2022-09-01T10:14:10;6.60;;;4.22;;
19535;SDS011;9913;51.168;4.124;2022-09-01T10:17:05;5.60;;;3.30;;
19535;SDS011;9913;51.168;4.124;2022-09-01T10:19:42;4.65;;;3.22;;
19535;SDS011;9913;51.168;4.124;2022-09-01T10:22:14;6.03;;;3.80;;
19535;SDS011;9913;51.168;4.124;2022-09-01T10:24:43;7.50;;;3.47;;
19535;SDS011;9913;51.168;4.124;2022-09-01T10:27:17;6.88;;;3.58;;
19535;SDS011;9913;51.168;4.124;2022-09-01T10:29:51;5.05;;;3.25;;
19535;SDS011;9913;51.168;4.124;2022-09-01T10:32:44;5.57;;;3.25;;
19535;SDS011;9913;51.168;4.124;2022-09-01T10:35:22;4.93;;;2.97;;
19535;SDS011;9913;51.168;4.124;2022-09-01T10:37:55;5.57;;;3.25;;
19535;SDS011;9913;51.168;4.124;2022-09-01T10:40:36;5.55;;;3.00;;
19535;SDS011;9913;51.168;4.124;2022-09-01T10:43:31;5.53;;;3.80;;
19535;SDS011;9913;51.168;4.124;2022-09-01T10:46:09;6.20;;;2.85;;
19535;SDS011;9913;51.168;4.124;2022-09-01T10:49:19;3.42;;;2.13;;
19535;SDS011;9913;51.168;4.124;2022-09-01T10:55:22;3.97;;;1.77;;
19535;SDS011;9913;51.168;4.124;2022-09-01T10:57:54;4.00;;;1.83;;
19535;SDS011;9913;51.168;4.124;2022-09-01T11:00:52;3.17;;;1.60;;
19535;SDS011;9913;51.168;4.124;2022-09-01T11:09:40;2.50;;;1.52;;
19535;SDS011;9913;51.168;4.124;2022-09-01T11:12:24;5.20;;;1.85;;
19535;SDS011;9913;51.168;4.124;2022-09-01T11:15:03;2.65;;;1.70;;
19535;SDS011;9913;51.168;4.124;2022-09-01T11:17:35;2.50;;;1.55;;
19535;SDS011;9913;51.168;4.124;2022-09-01T11:20:07;4.53;;;1.77;;
19535;SDS011;9913;51.168;4.124;2022-09-01T11:22:39;2.55;;;1.88;;
19535;SDS011;9913;51.168;4.124;2022-09-01T11:28:07;3.42;;;1.80;;
19535;SDS011;9913;51.168;4.124;2022-09-01T11:30:39;5.13;;;1.90;;
19535;SDS011;9913;51.168;4.124;2022-09-01T11:33:25;3.08;;;1.58;;
19535;SDS011;9913;51.168;4.124;2022-09-01T11:36:00;3.70;;;1.75;;
19535;SDS011;9913;51.168;4.124;2022-09-01T11:38:31;3.55;;;1.77;;
19535;SDS011;9913;51.168;4.124;2022-09-01T11:41:18;2.60;;;1.83;;
19535;SDS011;9913;51.168;4.124;2022-09-01T11:44:00;3.83;;;1.75;;
19535;SDS011;9913;51.168;4.124;2022-09-01T11:46:30;3.45;;;1.60;;
19535;SDS011;9913;51.168;4.124;2022-09-01T11:49:02;3.13;;;1.70;;
19535;SDS011;9913;51.168;4.124;2022-09-01T11:51:40;2.17;;;1.50;;
19535;SDS011;9913;51.168;4.124;2022-09-01T11:54:13;2.60;;;1.40;;
19535;SDS011;9913;51.168;4.124;2022-09-01T11:56:42;2.33;;;1.63;;
19535;SDS011;9913;51.168;4.124;2022-09-01T11:59:11;2.83;;;1.50;;
19535;SDS011;9913;51.168;4.124;2022-09-01T12:01:39;3.65;;;1.58;;
19535;SDS011;9913;51.168;4.124;2022-09-01T12:04:18;4.07;;;1.60;;
19535;SDS011;9913;51.168;4.124;2022-09-01T12:06:56;3.35;;;1.58;;
19535;SDS011;9913;51.168;4.124;2022-09-01T12:09:34;2.50;;;1.65;;
19535;SDS011;9913;51.168;4.124;2022-09-01T12:12:06;2.85;;;1.50;;
19535;SDS011;9913;51.168;4.124;2022-09-01T12:14:56;2.88;;;1.77;;
19535;SDS011;9913;51.168;4.124;2022-09-01T12:17:32;2.42;;;1.65;;
19535;SDS011;9913;51.168;4.124;2022-09-01T12:22:57;2.95;;;1.80;;
19535;SDS011;9913;51.168;4.124;2022-09-01T12:25:28;2.72;;;1.60;;
19535;SDS011;9913;51.168;4.124;2022-09-01T12:27:58;4.15;;;1.90;;
19535;SDS011;9913;51.168;4.124;2022-09-01T12:30:29;3.95;;;1.80;;
19535;SDS011;9913;51.168;4.124;2022-09-01T12:33:01;4.32;;;1.88;;
19535;SDS011;9913;51.168;4.124;2022-09-01T12:35:49;3.58;;;1.80;;
19535;SDS011;9913;51.168;4.124;2022-09-01T12:38:25;2.30;;;1.45;;
19535;SDS011;9913;51.168;4.124;2022-09-01T12:40:56;2.92;;;1.50;;
19535;SDS011;9913;51.168;4.124;2022-09-01T12:43:26;5.47;;;1.50;;
19535;SDS011;9913;51.168;4.124;2022-09-01T12:46:00;3.40;;;1.50;;
19535;SDS011;9913;51.168;4.124;2022-09-01T12:48:31;2.08;;;1.45;;
19535;SDS011;9913;51.168;4.124;2022-09-01T12:51:02;2.20;;;1.73;;
19535;SDS011;9913;51.168;4.124;2022-09-01T12:53:35;4.10;;;2.17;;
19535;SDS011;9913;51.168;4.124;2022-09-01T12:56:05;4.28;;;1.80;;
19535;SDS011;9913;51.168;4.124;2022-09-01T12:58:46;2.90;;;1.92;;
19535;SDS011;9913;51.168;4.124;2022-09-01T13:01:25;5.43;;;1.70;;
19535;SDS011;9913;51.168;4.124;2022-09-01T13:04:05;2.53;;;1.85;;
19535;SDS011;9913;51.168;4.124;2022-09-01T13:06:38;2.33;;;1.60;;
19535;SDS011;9913;51.168;4.124;2022-09-01T13:09:07;3.67;;;1.60;;
19535;SDS011;9913;51.168;4.124;2022-09-01T13:11:35;2.60;;;1.80;;
19535;SDS011;9913;51.168;4.124;2022-09-01T13:14:24;3.40;;;1.85;;
19535;SDS011;9913;51.168;4.124;2022-09-01T13:16:55;6.05;;;1.98;;
19535;SDS011;9913;51.168;4.124;2022-09-01T13:19:24;3.00;;;1.95;;
19535;SDS011;9913;51.168;4.124;2022-09-01T13:21:56;2.22;;;1.95;;
19535;SDS011;9913;51.168;4.124;2022-09-01T13:24:25;2.40;;;1.95;;
19535;SDS011;9913;51.168;4.124;2022-09-01T13:26:57;4.95;;;2.08;;
19535;SDS011;9913;51.168;4.124;2022-09-01T13:29:46;1.95;;;1.80;;
19535;SDS011;9913;51.168;4.124;2022-09-01T13:32:16;3.03;;;2.03;;
19535;SDS011;9913;51.168;4.124;2022-09-01T13:34:48;3.80;;;2.03;;
19535;SDS011;9913;51.168;4.124;2022-09-01T13:37:18;2.75;;;2.00;;
19535;SDS011;9913;51.168;4.124;2022-09-01T13:39:48;2.65;;;1.90;;
19535;SDS011;9913;51.168;4.124;2022-09-01T13:42:16;3.28;;;2.10;;
19535;SDS011;9913;51.168;4.124;2022-09-01T13:44:45;4.50;;;2.10;;
19535;SDS011;9913;51.168;4.124;2022-09-01T13:47:22;3.35;;;1.80;;
19535;SDS011;9913;51.168;4.124;2022-09-01T13:49:55;4.05;;;2.55;;
19535;SDS011;9913;51.168;4.124;2022-09-01T13:52:34;3.08;;;1.90;;
19535;SDS011;9913;51.168;4.124;2022-09-01T13:55:04;2.35;;;2.00;;
19535;SDS011;9913;51.168;4.124;2022-09-01T13:57:34;2.40;;;1.98;;
19535;SDS011;9913;51.168;4.124;2022-09-01T14:00:03;2.97;;;2.03;;
19535;SDS011;9913;51.168;4.124;2022-09-01T14:02:38;2.03;;;1.83;;
19535;SDS011;9913;51.168;4.124;2022-09-01T14:05:08;2.63;;;1.73;;
19535;SDS011;9913;51.168;4.124;2022-09-01T14:07:36;3.42;;;1.90;;
19535;SDS011;9913;51.168;4.124;2022-09-01T14:10:05;3.05;;;1.98;;
19535;SDS011;9913;51.168;4.124;2022-09-01T14:12:34;2.83;;;1.77;;
19535;SDS011;9913;51.168;4.124;2022-09-01T14:15:03;2.88;;;2.40;;
19535;SDS011;9913;51.168;4.124;2022-09-01T14:17:41;2.78;;;2.00;;
19535;SDS011;9913;51.168;4.124;2022-09-01T14:20:12;2.83;;;2.08;;
19535;SDS011;9913;51.168;4.124;2022-09-01T14:22:41;2.85;;;1.90;;
19535;SDS011;9913;51.168;4.124;2022-09-01T14:25:11;4.95;;;1.73;;
19535;SDS011;9913;51.168;4.124;2022-09-01T14:27:40;2.20;;;1.63;;
19535;SDS011;9913;51.168;4.124;2022-09-01T14:30:11;3.88;;;1.88;;
19535;SDS011;9913;51.168;4.124;2022-09-01T14:32:43;4.97;;;2.25;;
19535;SDS011;9913;51.168;4.124;2022-09-01T14:35:12;3.38;;;2.20;;
19535;SDS011;9913;51.168;4.124;2022-09-01T14:37:42;5.95;;;2.17;;
19535;SDS011;9913;51.168;4.124;2022-09-01T14:40:11;2.92;;;2.08;;
19535;SDS011;9913;51.168;4.124;2022-09-01T14:42:43;3.05;;;1.73;;
19535;SDS011;9913;51.168;4.124;2022-09-01T14:45:15;3.90;;;1.70;;
19535;SDS011;9913;51.168;4.124;2022-09-01T14:47:47;4.15;;;2.13;;
19535;SDS011;9913;51.168;4.124;2022-09-01T14:50:16;3.35;;;2.33;;
19535;SDS011;9913;51.168;4.124;2022-09-01T14:52:50;3.20;;;1.90;;
19535;SDS011;9913;51.168;4.124;2022-09-01T14:55:20;2.05;;;1.83;;
19535;SDS011;9913;51.168;4.124;2022-09-01T14:57:49;3.25;;;1.60;;
19535;SDS011;9913;51.168;4.124;2022-09-01T15:00:18;2.80;;;1.50;;
19535;SDS011;9913;51.168;4.124;2022-09-01T15:02:49;2.33;;;1.70;;
19535;SDS011;9913;51.168;4.124;2022-09-01T15:05:17;2.83;;;1.67;;
19535;SDS011;9913;51.168;4.124;2022-09-01T15:07:46;4.57;;;2.20;;
19535;SDS011;9913;51.168;4.124;2022-09-01T15:10:15;2.15;;;1.60;;
19535;SDS011;9913;51.168;4.124;2022-09-01T15:12:51;2.78;;;1.70;;
19535;SDS011;9913;51.168;4.124;2022-09-01T15:15:21;4.18;;;1.80;;
19535;SDS011;9913;51.168;4.124;2022-09-01T15:17:51;2.08;;;1.55;;
19535;SDS011;9913;51.168;4.124;2022-09-01T15:20:20;3.22;;;1.67;;
19535;SDS011;9913;51.168;4.124;2022-09-01T15:23:07;3.88;;;1.60;;
19535;SDS011;9913;51.168;4.124;2022-09-01T15:25:37;2.72;;;1.40;;
19535;SDS011;9913;51.168;4.124;2022-09-01T15:28:05;1.77;;;1.20;;
19535;SDS011;9913;51.168;4.124;2022-09-01T15:30:33;1.98;;;1.35;;
19535;SDS011;9913;51.168;4.124;2022-09-01T15:33:04;2.80;;;1.50;;
19535;SDS011;9913;51.168;4.124;2022-09-01T15:35:40;2.58;;;1.20;;
19535;SDS011;9913;51.168;4.124;2022-09-01T15:38:08;2.40;;;1.63;;
19535;SDS011;9913;51.168;4.124;2022-09-01T15:40:42;2.53;;;1.70;;
19535;SDS011;9913;51.168;4.124;2022-09-01T15:43:20;2.30;;;1.60;;
19535;SDS011;9913;51.168;4.124;2022-09-01T15:45:49;3.17;;;1.65;;
19535;SDS011;9913;51.168;4.124;2022-09-01T15:48:19;1.98;;;1.50;;
19535;SDS011;9913;51.168;4.124;2022-09-01T15:50:47;2.40;;;1.70;;
19535;SDS011;9913;51.168;4.124;2022-09-01T15:53:16;2.63;;;1.30;;
19535;SDS011;9913;51.168;4.124;2022-09-01T15:55:45;2.95;;;1.48;;
19535;SDS011;9913;51.168;4.124;2022-09-01T15:58:16;3.92;;;1.50;;
19535;SDS011;9913;51.168;4.124;2022-09-01T16:00:45;3.08;;;1.58;;